sensor_id;sensor_type;location;lat;lon;timestamp;pressure;altitude;pressure_sealevel;temperature;humidity
72855;BME280;60991;51.278;22.550;2023-06-19T00:01:12;99134.88;;;18.43;69.40
72855;BME280;60991;51.278;22.550;2023-06-19T00:02:43;99135.44;;;18.40;69.62
72855;BME280;60991;51.278;22.550;2023-06-19T00:04:13;99136.53;;;18.39;69.09
72855;BME280;60991;51.278;22.550;2023-06-19T00:05:43;99141.91;;;18.39;69.20
72855;BME280;60991;51.278;22.550;2023-06-19T00:07:14;99133.34;;;18.37;69.24
72855;BME280;60991;51.278;22.550;2023-06-19T00:08:44;99145.69;;;18.38;69.21
72855;BME280;60991;51.278;22.550;2023-06-19T00:10:14;99139.84;;;18.36;69.30
72855;BME280;60991;51.278;22.550;2023-06-19T00:11:44;99139.84;;;18.36;69.16
72855;BME280;60991;51.278;22.550;2023-06-19T00:13:15;99140.94;;;18.35;69.05
72855;BME280;60991;51.278;22.550;2023-06-19T00:14:45;99146.31;;;18.35;69.04
72855;BME280;60991;51.278;22.550;2023-06-19T00:16:15;99137.75;;;18.33;69.03
72855;BME280;60991;51.278;22.550;2023-06-19T00:17:46;99136.22;;;18.27;69.65
72855;BME280;60991;51.278;22.550;2023-06-19T00:19:16;99140.88;;;18.21;69.67
72855;BME280;60991;51.278;22.550;2023-06-19T00:20:46;99140.06;;;18.21;69.72
72855;BME280;60991;51.278;22.550;2023-06-19T00:22:17;99138.56;;;18.15;69.79
72855;BME280;60991;51.278;22.550;2023-06-19T00:23:47;99135.44;;;18.08;69.99
72855;BME280;60991;51.278;22.550;2023-06-19T00:25:20;99136.59;;;18.02;70.62
72855;BME280;60991;51.278;22.550;2023-06-19T00:26:50;99130.16;;;18.03;70.28
72855;BME280;60991;51.278;22.550;2023-06-19T00:28:20;99129.06;;;18.04;70.49
72855;BME280;60991;51.278;22.550;2023-06-19T00:29:51;99125.56;;;18.03;70.22
72855;BME280;60991;51.278;22.550;2023-06-19T00:31:21;99133.34;;;18.05;70.45
72855;BME280;60991;51.278;22.550;2023-06-19T00:32:51;99128.78;;;18.05;70.05
72855;BME280;60991;51.278;22.550;2023-06-19T00:34:21;99129.56;;;18.06;70.16
72855;BME280;60991;51.278;22.550;2023-06-19T00:35:52;99126.31;;;18.09;70.07
72855;BME280;60991;51.278;22.550;2023-06-19T00:37:22;99129.78;;;18.09;69.83
72855;BME280;60991;51.278;22.550;2023-06-19T00:38:52;99130.59;;;18.10;70.13
72855;BME280;60991;51.278;22.550;2023-06-19T00:40:31;99135.22;;;18.04;70.11
72855;BME280;60991;51.278;22.550;2023-06-19T00:42:02;99135.75;;;18.06;69.83
72855;BME280;60991;51.278;22.550;2023-06-19T00:43:32;99134.66;;;18.07;69.64
72855;BME280;60991;51.278;22.550;2023-06-19T00:45:03;99137.91;;;18.04;69.82
72855;BME280;60991;51.278;22.550;2023-06-19T00:46:36;99132.03;;;18.02;70.09
72855;BME280;60991;51.278;22.550;2023-06-19T00:48:07;99140.38;;;18.00;70.13
72855;BME280;60991;51.278;22.550;2023-06-19T00:49:38;99139.91;;;17.98;70.19
72855;BME280;60991;51.278;22.550;2023-06-19T00:51:09;99131.91;;;17.93;70.56
72855;BME280;60991;51.278;22.550;2023-06-19T00:52:39;99130.03;;;17.94;70.56
72855;BME280;60991;51.278;22.550;2023-06-19T00:54:09;99122.47;;;17.96;70.45
72855;BME280;60991;51.278;22.550;2023-06-19T00:55:40;99128.06;;;17.99;70.40
72855;BME280;60991;51.278;22.550;2023-06-19T00:57:10;99124.25;;;18.00;70.47
72855;BME280;60991;51.278;22.550;2023-06-19T00:58:40;99131.25;;;18.02;70.12
72855;BME280;60991;51.278;22.550;2023-06-19T01:00:11;99126.66;;;18.02;70.49
72855;BME280;60991;51.278;22.550;2023-06-19T01:01:42;99124.47;;;18.04;70.21
72855;BME280;60991;51.278;22.550;2023-06-19T01:03:13;99128.25;;;18.03;70.37
72855;BME280;60991;51.278;22.550;2023-06-19T01:04:43;99129.34;;;18.02;70.19
72855;BME280;60991;51.278;22.550;2023-06-19T01:06:17;99129.63;;;18.00;70.19
72855;BME280;60991;51.278;22.550;2023-06-19T01:08:00;99121.09;;;17.98;70.14
72855;BME280;60991;51.278;22.550;2023-06-19T01:09:36;99122.19;;;17.97;70.10
72855;BME280;60991;51.278;22.550;2023-06-19T01:11:09;99117.63;;;17.98;70.18
72855;BME280;60991;51.278;22.550;2023-06-19T01:12:52;99119.00;;;17.95;70.39
72855;BME280;60991;51.278;22.550;2023-06-19T01:14:39;99124.38;;;17.95;70.31
72855;BME280;60991;51.278;22.550;2023-06-19T01:16:13;99119.50;;;17.97;70.39
72855;BME280;60991;51.278;22.550;2023-06-19T01:17:45;99122.78;;;17.94;70.27
72855;BME280;60991;51.278;22.550;2023-06-19T01:19:18;99118.78;;;17.92;70.53
72855;BME280;60991;51.278;22.550;2023-06-19T01:20:49;99116.88;;;17.92;70.29
72855;BME280;60991;51.278;22.550;2023-06-19T01:22:37;99119.88;;;17.91;70.59
72855;BME280;60991;51.278;22.550;2023-06-19T01:24:07;99125.75;;;17.93;70.49
72855;BME280;60991;51.278;22.550;2023-06-19T01:25:38;99117.97;;;17.91;70.54
72855;BME280;60991;51.278;22.550;2023-06-19T01:27:08;99125.22;;;17.91;70.49
72855;BME280;60991;51.278;22.550;2023-06-19T01:28:42;99126.03;;;17.91;70.67
72855;BME280;60991;51.278;22.550;2023-06-19T01:30:14;99121.69;;;17.95;70.45
72855;BME280;60991;51.278;22.550;2023-06-19T01:31:52;99119.78;;;17.96;70.23
72855;BME280;60991;51.278;22.550;2023-06-19T01:33:27;99120.59;;;17.96;70.41
72855;BME280;60991;51.278;22.550;2023-06-19T01:34:58;99122.47;;;17.96;70.27
72855;BME280;60991;51.278;22.550;2023-06-19T01:36:29;99131.84;;;17.98;70.04
72855;BME280;60991;51.278;22.550;2023-06-19T01:38:00;99131.03;;;17.98;70.02
72855;BME280;60991;51.278;22.550;2023-06-19T01:39:32;99128.94;;;17.95;70.24
72855;BME280;60991;51.278;22.550;2023-06-19T01:41:04;99137.84;;;17.90;70.09
72855;BME280;60991;51.278;22.550;2023-06-19T01:42:39;99135.25;;;17.85;70.47
72855;BME280;60991;51.278;22.550;2023-06-19T01:44:11;99130.44;;;17.82;70.46
72855;BME280;60991;51.278;22.550;2023-06-19T01:45:42;99135.34;;;17.80;70.83
72855;BME280;60991;51.278;22.550;2023-06-19T01:47:12;99133.75;;;17.79;70.94
72855;BME280;60991;51.278;22.550;2023-06-19T01:48:43;99130.25;;;17.79;71.03
72855;BME280;60991;51.278;22.550;2023-06-19T01:50:14;99124.88;;;17.79;70.53
72855;BME280;60991;51.278;22.550;2023-06-19T01:51:44;99128.66;;;17.78;70.91
72855;BME280;60991;51.278;22.550;2023-06-19T01:53:15;99138.59;;;17.77;70.86
72855;BME280;60991;51.278;22.550;2023-06-19T01:54:45;99134.31;;;17.76;70.69
72855;BME280;60991;51.278;22.550;2023-06-19T01:56:15;99136.50;;;17.74;71.05
72855;BME280;60991;51.278;22.550;2023-06-19T01:57:46;99130.59;;;17.72;70.62
72855;BME280;60991;51.278;22.550;2023-06-19T01:59:16;99141.63;;;17.71;70.80
72855;BME280;60991;51.278;22.550;2023-06-19T02:00:46;99140.31;;;17.68;70.76
72855;BME280;60991;51.278;22.550;2023-06-19T02:02:16;99137.94;;;17.67;71.07
72855;BME280;60991;51.278;22.550;2023-06-19T02:03:46;99141.97;;;17.64;70.98
72855;BME280;60991;51.278;22.550;2023-06-19T02:05:17;99147.13;;;17.60;70.75
72855;BME280;60991;51.278;22.550;2023-06-19T02:06:47;99135.88;;;17.58;71.15
72855;BME280;60991;51.278;22.550;2023-06-19T02:08:17;99139.41;;;17.54;71.43
72855;BME280;60991;51.278;22.550;2023-06-19T02:09:47;99147.47;;;17.54;71.34
72855;BME280;60991;51.278;22.550;2023-06-19T02:11:18;99141.88;;;17.50;71.43
72855;BME280;60991;51.278;22.550;2023-06-19T02:12:48;99141.88;;;17.50;71.21
72855;BME280;60991;51.278;22.550;2023-06-19T02:14:18;99137.31;;;17.51;71.40
72855;BME280;60991;51.278;22.550;2023-06-19T02:15:48;99143.69;;;17.55;71.34
72855;BME280;60991;51.278;22.550;2023-06-19T02:17:18;99138.03;;;17.56;71.28
72855;BME280;60991;51.278;22.550;2023-06-19T02:18:49;99135.88;;;17.58;71.16
72855;BME280;60991;51.278;22.550;2023-06-19T02:20:19;99130.50;;;17.58;71.21
72855;BME280;60991;51.278;22.550;2023-06-19T02:21:49;99131.59;;;17.57;71.04
72855;BME280;60991;51.278;22.550;2023-06-19T02:23:19;99130.78;;;17.57;70.92
72855;BME280;60991;51.278;22.550;2023-06-19T02:24:50;99138.03;;;17.56;70.87
72855;BME280;60991;51.278;22.550;2023-06-19T02:26:20;99129.19;;;17.56;70.89
72855;BME280;60991;51.278;22.550;2023-06-19T02:27:51;99136.44;;;17.55;70.98
72855;BME280;60991;51.278;22.550;2023-06-19T02:29:21;99136.72;;;17.54;70.92
72855;BME280;60991;51.278;22.550;2023-06-19T02:30:53;99133.53;;;17.52;70.80
72855;BME280;60991;51.278;22.550;2023-06-19T02:32:24;99132.75;;;17.51;70.58
72855;BME280;60991;51.278;22.550;2023-06-19T02:33:54;99133.81;;;17.50;70.72
72855;BME280;60991;51.278;22.550;2023-06-19T02:35:25;99139.75;;;17.47;70.56
72855;BME280;60991;51.278;22.550;2023-06-19T02:36:55;99143.81;;;17.45;70.85
72855;BME280;60991;51.278;22.550;2023-06-19T02:38:26;99151.97;;;17.40;71.04
72855;BME280;60991;51.278;22.550;2023-06-19T02:39:56;99140.19;;;17.36;70.90
72855;BME280;60991;51.278;22.550;2023-06-19T02:41:26;99146.94;;;17.33;71.11
72855;BME280;60991;51.278;22.550;2023-06-19T02:42:56;99141.84;;;17.31;70.86
72855;BME280;60991;51.278;22.550;2023-06-19T02:44:27;99143.72;;;17.31;70.88
72855;BME280;60991;51.278;22.550;2023-06-19T02:45:57;99153.66;;;17.30;71.01
72855;BME280;60991;51.278;22.550;2023-06-19T02:47:27;99148.28;;;17.30;70.69
72855;BME280;60991;51.278;22.550;2023-06-19T02:48:57;99145.63;;;17.30;70.88
72855;BME280;60991;51.278;22.550;2023-06-19T02:50:28;99148.28;;;17.30;70.90
72855;BME280;60991;51.278;22.550;2023-06-19T02:51:58;99148.00;;;17.32;70.69
72855;BME280;60991;51.278;22.550;2023-06-19T02:53:28;99150.41;;;17.34;70.60
72855;BME280;60991;51.278;22.550;2023-06-19T02:54:58;99150.13;;;17.35;70.48
72855;BME280;60991;51.278;22.550;2023-06-19T02:56:29;99150.88;;;17.41;70.40
72855;BME280;60991;51.278;22.550;2023-06-19T02:57:59;99156.75;;;17.43;70.38
72855;BME280;60991;51.278;22.550;2023-06-19T02:59:29;99156.94;;;17.46;70.21
72855;BME280;60991;51.278;22.550;2023-06-19T03:01:00;99156.66;;;17.48;70.10
72855;BME280;60991;51.278;22.550;2023-06-19T03:02:30;99157.69;;;17.52;70.12
72855;BME280;60991;51.278;22.550;2023-06-19T03:04:00;99159.00;;;17.54;70.00
72855;BME280;60991;51.278;22.550;2023-06-19T03:05:30;99159.22;;;17.58;69.90
72855;BME280;60991;51.278;22.550;2023-06-19T03:07:01;99158.44;;;17.57;69.82
72855;BME280;60991;51.278;22.550;2023-06-19T03:08:32;99152.78;;;17.59;69.45
72855;BME280;60991;51.278;22.550;2023-06-19T03:10:03;99157.34;;;17.58;69.62
72855;BME280;60991;51.278;22.550;2023-06-19T03:11:33;99155.69;;;17.62;69.41
72855;BME280;60991;51.278;22.550;2023-06-19T03:13:03;99153.00;;;17.62;69.32
72855;BME280;60991;51.278;22.550;2023-06-19T03:14:34;99160.78;;;17.64;69.06
72855;BME280;60991;51.278;22.550;2023-06-19T03:16:04;99157.81;;;17.65;69.13
72855;BME280;60991;51.278;22.550;2023-06-19T03:17:34;99157.53;;;17.67;69.07
72855;BME280;60991;51.278;22.550;2023-06-19T03:19:04;99148.66;;;17.67;68.97
72855;BME280;60991;51.278;22.550;2023-06-19T03:20:35;99155.06;;;17.71;69.27
72855;BME280;60991;51.278;22.550;2023-06-19T03:22:05;99152.09;;;17.72;68.95
72855;BME280;60991;51.278;22.550;2023-06-19T03:23:35;99155.56;;;17.73;68.78
72855;BME280;60991;51.278;22.550;2023-06-19T03:25:05;99161.44;;;17.75;68.25
72855;BME280;60991;51.278;22.550;2023-06-19T03:26:36;99161.69;;;17.78;68.48
72855;BME280;60991;51.278;22.550;2023-06-19T03:28:06;99162.47;;;17.79;68.79
72855;BME280;60991;51.278;22.550;2023-06-19T03:29:36;99166.25;;;17.78;68.67
72855;BME280;60991;51.278;22.550;2023-06-19T03:31:07;99162.25;;;17.75;68.82
72855;BME280;60991;51.278;22.550;2023-06-19T03:32:37;99157.97;;;17.74;68.94
72855;BME280;60991;51.278;22.550;2023-06-19T03:34:07;99171.09;;;17.76;69.10
72855;BME280;60991;51.278;22.550;2023-06-19T03:35:37;99163.56;;;17.78;68.87
72855;BME280;60991;51.278;22.550;2023-06-19T03:37:07;99173.22;;;17.79;68.98
72855;BME280;60991;51.278;22.550;2023-06-19T03:38:38;99164.06;;;17.80;69.17
72855;BME280;60991;51.278;22.550;2023-06-19T03:40:08;99165.16;;;17.79;69.46
72855;BME280;60991;51.278;22.550;2023-06-19T03:41:38;99168.41;;;17.76;69.44
72855;BME280;60991;51.278;22.550;2023-06-19T03:43:09;99167.63;;;17.75;69.59
72855;BME280;60991;51.278;22.550;2023-06-19T03:44:39;99166.03;;;17.74;69.78
72855;BME280;60991;51.278;22.550;2023-06-19T03:46:09;99161.44;;;17.75;69.96
72855;BME280;60991;51.278;22.550;2023-06-19T03:47:39;99163.28;;;17.79;69.73
72855;BME280;60991;51.278;22.550;2023-06-19T03:49:09;99163.97;;;17.85;69.58
72855;BME280;60991;51.278;22.550;2023-06-19T03:50:40;99171.19;;;17.89;69.42
72855;BME280;60991;51.278;22.550;2023-06-19T03:52:10;99162.53;;;17.92;69.49
72855;BME280;60991;51.278;22.550;2023-06-19T03:53:40;99171.13;;;17.94;69.45
72855;BME280;60991;51.278;22.550;2023-06-19T03:55:10;99172.72;;;17.95;69.37
72855;BME280;60991;51.278;22.550;2023-06-19T03:56:41;99175.09;;;17.97;69.31
72855;BME280;60991;51.278;22.550;2023-06-19T03:58:11;99178.00;;;18.00;69.13
72855;BME280;60991;51.278;22.550;2023-06-19T03:59:41;99176.91;;;18.02;69.28
72855;BME280;60991;51.278;22.550;2023-06-19T04:01:11;99177.13;;;18.05;69.05
72855;BME280;60991;51.278;22.550;2023-06-19T04:02:41;99174.44;;;18.05;68.94
72855;BME280;60991;51.278;22.550;2023-06-19T04:04:12;99178.94;;;18.10;68.94
72855;BME280;60991;51.278;22.550;2023-06-19T04:05:42;99174.06;;;18.12;68.92
72855;BME280;60991;51.278;22.550;2023-06-19T04:07:12;99177.28;;;18.14;69.06
72855;BME280;60991;51.278;22.550;2023-06-19T04:08:43;99176.47;;;18.13;68.65
72855;BME280;60991;51.278;22.550;2023-06-19T04:10:13;99176.69;;;18.17;68.58
72855;BME280;60991;51.278;22.550;2023-06-19T04:11:43;99178.88;;;18.15;68.72
72855;BME280;60991;51.278;22.550;2023-06-19T04:13:13;99177.50;;;18.17;68.77
72855;BME280;60991;51.278;22.550;2023-06-19T04:14:46;99186.66;;;18.16;68.49
72855;BME280;60991;51.278;22.550;2023-06-19T04:16:16;99189.63;;;18.15;68.38
72855;BME280;60991;51.278;22.550;2023-06-19T04:17:46;99189.63;;;18.15;68.41
72855;BME280;60991;51.278;22.550;2023-06-19T04:19:17;99190.94;;;18.17;68.50
72855;BME280;60991;51.278;22.550;2023-06-19T04:20:47;99189.84;;;18.18;68.66
72855;BME280;60991;51.278;22.550;2023-06-19T04:22:17;99189.53;;;18.20;68.25
72855;BME280;60991;51.278;22.550;2023-06-19T04:23:47;99195.91;;;18.24;68.25
72855;BME280;60991;51.278;22.550;2023-06-19T04:25:17;99184.28;;;18.28;68.47
72855;BME280;60991;51.278;22.550;2023-06-19T04:26:48;99179.78;;;18.24;68.43
72855;BME280;60991;51.278;22.550;2023-06-19T04:28:18;99186.25;;;18.23;68.21
72855;BME280;60991;51.278;22.550;2023-06-19T04:29:48;99186.84;;;18.20;68.57
72855;BME280;60991;51.278;22.550;2023-06-19T04:31:18;99193.81;;;18.21;68.60
72855;BME280;60991;51.278;22.550;2023-06-19T04:32:49;99186.84;;;18.20;68.67
72855;BME280;60991;51.278;22.550;2023-06-19T04:34:19;99180.88;;;18.23;68.61
72855;BME280;60991;51.278;22.550;2023-06-19T04:35:49;99185.75;;;18.21;68.99
72855;BME280;60991;51.278;22.550;2023-06-19T04:37:19;99185.56;;;18.17;69.04
72855;BME280;60991;51.278;22.550;2023-06-19T04:38:49;99190.13;;;18.17;68.89
72855;BME280;60991;51.278;22.550;2023-06-19T04:40:20;99185.34;;;18.14;68.90
72855;BME280;60991;51.278;22.550;2023-06-19T04:41:50;99189.63;;;18.15;68.93
72855;BME280;60991;51.278;22.550;2023-06-19T04:43:20;99194.19;;;18.14;69.16
72855;BME280;60991;51.278;22.550;2023-06-19T04:44:50;99188.03;;;18.14;69.38
72855;BME280;60991;51.278;22.550;2023-06-19T04:46:21;99190.41;;;18.15;69.17
72855;BME280;60991;51.278;22.550;2023-06-19T04:47:51;99188.44;;;18.21;68.93
72855;BME280;60991;51.278;22.550;2023-06-19T04:49:21;99187.16;;;18.18;69.08
72855;BME280;60991;51.278;22.550;2023-06-19T04:50:52;99172.91;;;18.18;69.04
72855;BME280;60991;51.278;22.550;2023-06-19T04:52:22;99180.09;;;18.22;69.15
72855;BME280;60991;51.278;22.550;2023-06-19T04:53:52;99183.00;;;18.26;69.11
72855;BME280;60991;51.278;22.550;2023-06-19T04:55:22;99184.59;;;18.27;68.84
72855;BME280;60991;51.278;22.550;2023-06-19T04:56:53;99181.09;;;18.26;68.30
72855;BME280;60991;51.278;22.550;2023-06-19T04:58:23;99186.41;;;18.31;68.20
72855;BME280;60991;51.278;22.550;2023-06-19T04:59:53;99181.25;;;18.35;67.78
72855;BME280;60991;51.278;22.550;2023-06-19T05:01:23;99179.03;;;18.37;68.00
72855;BME280;60991;51.278;22.550;2023-06-19T05:02:53;99179.47;;;18.44;67.65
72855;BME280;60991;51.278;22.550;2023-06-19T05:04:24;99174.81;;;18.50;67.54
72855;BME280;60991;51.278;22.550;2023-06-19T05:05:54;99176.41;;;18.51;67.73
72855;BME280;60991;51.278;22.550;2023-06-19T05:07:24;99180.59;;;18.57;67.73
72855;BME280;60991;51.278;22.550;2023-06-19T05:08:55;99178.16;;;18.60;67.72
72855;BME280;60991;51.278;22.550;2023-06-19T05:10:25;99182.66;;;18.65;67.67
72855;BME280;60991;51.278;22.550;2023-06-19T05:11:56;99183.75;;;18.64;67.40
72855;BME280;60991;51.278;22.550;2023-06-19T05:13:27;99181.94;;;18.59;67.03
72855;BME280;60991;51.278;22.550;2023-06-19T05:14:57;99186.44;;;18.45;67.08
72855;BME280;60991;51.278;22.550;2023-06-19T05:16:27;99186.13;;;18.33;67.77
72855;BME280;60991;51.278;22.550;2023-06-19T05:17:58;99179.66;;;18.34;67.67
72855;BME280;60991;51.278;22.550;2023-06-19T05:19:28;99188.41;;;18.40;67.76
72855;BME280;60991;51.278;22.550;2023-06-19T05:20:58;99184.78;;;18.49;67.67
72855;BME280;60991;51.278;22.550;2023-06-19T05:22:28;99175.84;;;18.54;67.50
72855;BME280;60991;51.278;22.550;2023-06-19T05:23:59;99181.22;;;18.54;67.23
72855;BME280;60991;51.278;22.550;2023-06-19T05:25:29;99175.84;;;18.54;67.04
72855;BME280;60991;51.278;22.550;2023-06-19T05:26:59;99176.03;;;18.57;66.69
72855;BME280;60991;51.278;22.550;2023-06-19T05:28:30;99177.91;;;18.57;67.19
72855;BME280;60991;51.278;22.550;2023-06-19T05:30:00;99185.97;;;18.57;67.02
72855;BME280;60991;51.278;22.550;2023-06-19T05:31:30;99187.69;;;18.53;67.54
72855;BME280;60991;51.278;22.550;2023-06-19T05:33:00;99188.97;;;18.55;67.61
72855;BME280;60991;51.278;22.550;2023-06-19T05:34:31;99188.03;;;18.65;67.40
72855;BME280;60991;51.278;22.550;2023-06-19T05:36:01;99185.06;;;18.66;67.51
72855;BME280;60991;51.278;22.550;2023-06-19T05:37:31;99184.06;;;18.76;67.28
72855;BME280;60991;51.278;22.550;2023-06-19T05:39:01;99181.28;;;18.67;67.89
72855;BME280;60991;51.278;22.550;2023-06-19T05:40:32;99180.47;;;18.67;67.62
72855;BME280;60991;51.278;22.550;2023-06-19T05:42:02;99188.34;;;18.77;67.54
72855;BME280;60991;51.278;22.550;2023-06-19T05:43:32;99187.38;;;18.87;67.43
72855;BME280;60991;51.278;22.550;2023-06-19T05:45:03;99193.34;;;18.84;67.21
72855;BME280;60991;51.278;22.550;2023-06-19T05:46:34;99188.19;;;18.87;67.12
72855;BME280;60991;51.278;22.550;2023-06-19T05:48:04;99195.38;;;18.92;67.08
72855;BME280;60991;51.278;22.550;2023-06-19T05:49:34;99194.06;;;18.89;66.78
72855;BME280;60991;51.278;22.550;2023-06-19T05:51:04;99197.56;;;18.90;66.65
72855;BME280;60991;51.278;22.550;2023-06-19T05:52:35;99199.75;;;19.01;66.43
72855;BME280;60991;51.278;22.550;2023-06-19T05:54:05;99191.31;;;19.08;66.67
72855;BME280;60991;51.278;22.550;2023-06-19T05:55:35;99195.19;;;19.02;66.44
72855;BME280;60991;51.278;22.550;2023-06-19T05:57:06;99200.13;;;18.95;65.79
72855;BME280;60991;51.278;22.550;2023-06-19T05:58:36;99199.25;;;18.86;66.28
72855;BME280;60991;51.278;22.550;2023-06-19T06:00:07;99195.81;;;18.80;65.80
72855;BME280;60991;51.278;22.550;2023-06-19T06:01:37;99206.59;;;18.94;65.80
72855;BME280;60991;51.278;22.550;2023-06-19T06:03:07;99197.06;;;19.01;65.67
72855;BME280;60991;51.278;22.550;2023-06-19T06:04:37;99199.66;;;19.07;65.29
72855;BME280;60991;51.278;22.550;2023-06-19T06:06:07;99203.75;;;19.18;65.27
72855;BME280;60991;51.278;22.550;2023-06-19T06:07:38;99204.56;;;19.18;64.31
72855;BME280;60991;51.278;22.550;2023-06-19T06:09:08;99201.88;;;19.18;64.33
72855;BME280;60991;51.278;22.550;2023-06-19T06:10:38;99205.56;;;19.22;64.53
72855;BME280;60991;51.278;22.550;2023-06-19T06:12:08;99203.16;;;19.21;64.66
72855;BME280;60991;51.278;22.550;2023-06-19T06:13:39;99208.25;;;19.22;63.79
72855;BME280;60991;51.278;22.550;2023-06-19T06:15:09;99210.34;;;19.25;63.52
72855;BME280;60991;51.278;22.550;2023-06-19T06:16:39;99200.09;;;19.27;63.39
72855;BME280;60991;51.278;22.550;2023-06-19T06:18:09;99208.53;;;19.34;62.99
72855;BME280;60991;51.278;22.550;2023-06-19T06:19:40;99201.84;;;19.32;62.65
72855;BME280;60991;51.278;22.550;2023-06-19T06:21:10;99210.44;;;19.34;62.78
72855;BME280;60991;51.278;22.550;2023-06-19T06:22:41;99214.03;;;19.29;62.65
72855;BME280;60991;51.278;22.550;2023-06-19T06:24:11;99205.47;;;19.27;62.82
72855;BME280;60991;51.278;22.550;2023-06-19T06:25:41;99207.44;;;19.35;62.77
72855;BME280;60991;51.278;22.550;2023-06-19T06:27:12;99210.34;;;19.39;63.29
72855;BME280;60991;51.278;22.550;2023-06-19T06:28:43;99207.56;;;19.44;63.35
72855;BME280;60991;51.278;22.550;2023-06-19T06:30:13;99205.38;;;19.46;63.04
72855;BME280;60991;51.278;22.550;2023-06-19T06:31:46;99202.19;;;19.44;62.71
72855;BME280;60991;51.278;22.550;2023-06-19T06:33:17;99205.66;;;19.45;62.46
72855;BME280;60991;51.278;22.550;2023-06-19T06:34:47;99206.63;;;19.49;62.43
72855;BME280;60991;51.278;22.550;2023-06-19T06:36:17;99202.78;;;19.55;63.00
72855;BME280;60991;51.278;22.550;2023-06-19T06:37:47;99201.38;;;19.57;62.87
72855;BME280;60991;51.278;22.550;2023-06-19T06:39:17;99206.97;;;19.61;62.78
72855;BME280;60991;51.278;22.550;2023-06-19T06:40:48;99209.38;;;19.62;63.15
72855;BME280;60991;51.278;22.550;2023-06-19T06:42:18;99205.00;;;19.66;63.12
72855;BME280;60991;51.278;22.550;2023-06-19T06:43:48;99206.25;;;19.69;63.16
72855;BME280;60991;51.278;22.550;2023-06-19T06:45:18;99215.94;;;19.70;63.09
72855;BME280;60991;51.278;22.550;2023-06-19T06:46:49;99211.53;;;19.74;62.56
72855;BME280;60991;51.278;22.550;2023-06-19T06:48:19;99215.22;;;19.78;62.35
72855;BME280;60991;51.278;22.550;2023-06-19T06:49:49;99216.03;;;19.79;62.50
72855;BME280;60991;51.278;22.550;2023-06-19T06:51:19;99214.94;;;19.80;63.00
72855;BME280;60991;51.278;22.550;2023-06-19T06:52:49;99205.44;;;19.82;62.84
72855;BME280;60991;51.278;22.550;2023-06-19T06:54:20;99213.53;;;19.82;63.21
72855;BME280;60991;51.278;22.550;2023-06-19T06:55:50;99220.22;;;19.85;62.75
72855;BME280;60991;51.278;22.550;2023-06-19T06:57:20;99216.28;;;19.91;63.06
72855;BME280;60991;51.278;22.550;2023-06-19T06:58:50;99219.50;;;19.93;63.19
72855;BME280;60991;51.278;22.550;2023-06-19T07:00:20;99211.09;;;19.94;63.69
72855;BME280;60991;51.278;22.550;2023-06-19T07:01:51;99212.09;;;19.98;63.41
72855;BME280;60991;51.278;22.550;2023-06-19T07:03:21;99219.75;;;20.05;63.47
72855;BME280;60991;51.278;22.550;2023-06-19T07:04:51;99214.56;;;20.09;63.47
72855;BME280;60991;51.278;22.550;2023-06-19T07:06:21;99214.75;;;20.12;63.76
72855;BME280;60991;51.278;22.550;2023-06-19T07:07:52;99216.66;;;20.12;63.18
72855;BME280;60991;51.278;22.550;2023-06-19T07:09:22;99211.44;;;20.15;63.09
72855;BME280;60991;51.278;22.550;2023-06-19T07:10:52;99213.53;;;20.18;63.11
72855;BME280;60991;51.278;22.550;2023-06-19T07:12:22;99210.53;;;20.20;63.05
72855;BME280;60991;51.278;22.550;2023-06-19T07:13:52;99214.53;;;20.22;63.39
72855;BME280;60991;51.278;22.550;2023-06-19T07:15:23;99214.41;;;20.27;63.61
72855;BME280;60991;51.278;22.550;2023-06-19T07:16:53;99207.91;;;20.28;63.51
72855;BME280;60991;51.278;22.550;2023-06-19T07:18:23;99213.69;;;20.35;62.90
72855;BME280;60991;51.278;22.550;2023-06-19T07:19:53;99206.91;;;20.38;62.51
72855;BME280;60991;51.278;22.550;2023-06-19T07:21:24;99212.00;;;20.39;62.92
72855;BME280;60991;51.278;22.550;2023-06-19T07:22:54;99210.25;;;20.44;62.65
72855;BME280;60991;51.278;22.550;2023-06-19T07:24:24;99217.44;;;20.48;62.93
72855;BME280;60991;51.278;22.550;2023-06-19T07:25:54;99221.91;;;20.53;61.97
72855;BME280;60991;51.278;22.550;2023-06-19T07:27:25;99224.81;;;20.56;62.03
72855;BME280;60991;51.278;22.550;2023-06-19T07:28:55;99216.22;;;20.54;61.15
72855;BME280;60991;51.278;22.550;2023-06-19T07:30:25;99224.91;;;20.51;61.50
72855;BME280;60991;51.278;22.550;2023-06-19T07:31:56;99224.25;;;20.46;60.31
72855;BME280;60991;51.278;22.550;2023-06-19T07:33:26;99228.72;;;20.50;60.61
72855;BME280;60991;51.278;22.550;2023-06-19T07:34:59;99230.50;;;20.55;59.33
72855;BME280;60991;51.278;22.550;2023-06-19T07:36:29;99223.41;;;20.59;59.27
72855;BME280;60991;51.278;22.550;2023-06-19T07:37:59;99218.31;;;20.57;59.93
72855;BME280;60991;51.278;22.550;2023-06-19T07:39:29;99222.59;;;20.58;60.28
72855;BME280;60991;51.278;22.550;2023-06-19T07:41:00;99232.59;;;20.58;61.00
72855;BME280;60991;51.278;22.550;2023-06-19T07:42:30;99232.59;;;20.58;60.78
72855;BME280;60991;51.278;22.550;2023-06-19T07:44:00;99230.56;;;20.63;61.26
72855;BME280;60991;51.278;22.550;2023-06-19T07:45:30;99226.44;;;20.66;61.56
72855;BME280;60991;51.278;22.550;2023-06-19T07:47:00;99231.22;;;20.69;61.85
72855;BME280;60991;51.278;22.550;2023-06-19T07:48:31;99231.41;;;20.72;61.38
72855;BME280;60991;51.278;22.550;2023-06-19T07:50:01;99224.63;;;20.75;62.01
72855;BME280;60991;51.278;22.550;2023-06-19T07:51:31;99236.06;;;20.81;62.08
72855;BME280;60991;51.278;22.550;2023-06-19T07:53:02;99234.94;;;20.82;62.11
72855;BME280;60991;51.278;22.550;2023-06-19T07:54:34;99236.13;;;20.89;62.34